Time;durP1;ratioP1;P1;durP2;ratioP2;P2;SDS_P1;SDS_P2;PMS_P1;PMS_P2;Temp;Humidity;BMP_temperature;BMP_pressure;BME280_temperature;BME280_humidity;BME280_pressure;Samples;Min_cycle;Max_cycle;Signal;HPM_P1;HPM_P2
2022/03/04 08:10:25;;;;;;;18.17;12.48;;;;;;;;;;12940107;22;1705043;-84
2022/03/04 08:15:26;;;;;;;19.63;14.68;;;;;;;;;;12870114;23;20247;-79
2022/03/04 08:20:29;;;;;;;;;;;;;;;;;;12848268;23;20124;-78
2022/03/04 08:25:31;;;;;;;16.90;11.40;;;;;;;;;;12845082;23;19903;-81
2022/03/04 08:30:33;;;;;;;19.77;14.65;;;;;;;;;;12844586;23;20056;-79
2022/03/04 08:35:33;;;;;;;26.30;18.23;;;;;;;;;;12845805;23;20005;-78
2022/03/04 08:40:34;;;;;;;15.60;11.13;;;;;;;;;;12847841;23;20016;-79
2022/03/04 08:45:35;;;;;;;26.50;19.35;;;;;;;;;;12844619;23;20063;-78
2022/03/04 08:50:36;;;;;;;21.02;14.35;;;;;;;;;;12842018;23;20099;-78
2022/03/04 08:55:41;;;;;;;14.55;10.50;;;;;;;;;;12869155;23;19996;-79
2022/03/04 09:00:45;;;;;;;12.50;9.20;;;;;;;;;;12872644;23;20114;-82
2022/03/04 09:05:47;;;;;;;15.13;10.32;;;;;;;;;;12847729;23;20051;-81
2022/03/04 09:10:48;;;;;;;12.50;9.38;;;;;;;;;;12848734;23;20436;-81
2022/03/04 09:15:51;;;;;;;;;;;;;;;;;;12848234;23;20007;-81
2022/03/04 09:20:54;;;;;;;16.48;12.85;;;;;;;;;;12846819;23;19900;-81
2022/03/04 09:26:05;;;;;;;16.15;13.35;;;;;;;;;;12842967;23;20013;-81
2022/03/04 09:31:09;;;;;;;18.23;13.88;;;;;;;;;;12843751;23;20008;-82
2022/03/04 09:36:13;;;;;;;14.20;10.80;;;;;;;;;;12845838;23;20497;-83
2022/03/04 09:41:17;;;;;;;12.60;10.07;;;;;;;;;;12845896;23;20028;-80
2022/03/04 09:46:21;;;;;;;17.45;11.65;;;;;;;;;;12845719;23;20083;-81
2022/03/04 09:51:22;;;;;;;17.88;12.90;;;;;;;;;;12844336;23;20040;-81
2022/03/04 09:56:33;;;;;;;14.23;11.43;;;;;;;;;;12869210;23;20008;-80
2022/03/04 10:01:35;;;;;;;17.80;13.20;;;;;;;;;;12843889;23;20095;-79
2022/03/04 10:06:38;;;;;;;17.33;12.65;;;;;;;;;;12854756;23;20012;-80
2022/03/04 10:11:40;;;;;;;15.68;11.18;;;;;;;;;;12843845;23;20452;-81
2022/03/04 10:17:02;;;;;;;13.85;11.32;;;;;;;;;;12852163;23;20575;-79
2022/03/04 10:22:07;;;;;;;13.85;11.13;;;;;;;;;;12843497;23;20000;-78
2022/03/04 10:27:13;;;;;;;16.95;13.18;;;;;;;;;;12843506;23;20005;-77
2022/03/04 10:32:28;;;;;;;14.68;11.32;;;;;;;;;;12842297;23;20338;-79
2022/03/04 10:37:57;;;;;;;14.75;11.93;;;;;;;;;;12843704;23;20290;-80
2022/03/04 10:43:25;;;;;;;12.90;9.15;;;;;;;;;;12843295;23;20019;-80
2022/03/04 10:48:26;;;;;;;15.18;11.27;;;;;;;;;;12841166;23;20024;-79
2022/03/04 10:53:37;;;;;;;13.13;9.48;;;;;;;;;;12840514;23;20087;-79
2022/03/04 10:58:41;;;;;;;;;;;;;;;;;;12841069;23;20008;-79
2022/03/04 11:03:48;;;;;;;18.50;15.02;;;;;;;;;;12844644;23;19899;-78
2022/03/04 11:08:49;;;;;;;21.50;16.70;;;;;;;;;;12847639;23;20005;-80
2022/03/04 11:14:13;;;;;;;18.30;14.77;;;;;;;;;;12845630;23;20013;-79
2022/03/04 11:19:18;;;;;;;16.80;13.60;;;;;;;;;;12867719;23;20001;-79
2022/03/04 11:24:19;;;;;;;12.73;10.20;;;;;;;;;;12843252;23;20015;-79
2022/03/04 11:29:34;;;;;;;17.55;13.95;;;;;;;;;;12842995;23;20100;-80
2022/03/04 11:34:46;;;;;;;18.95;13.77;;;;;;;;;;12871199;23;20032;-79
2022/03/04 11:40:06;;;;;;;16.38;12.85;;;;;;;;;;12842735;23;20020;-78
2022/03/04 11:45:09;;;;;;;15.83;13.07;;;;;;;;;;12841796;23;20009;-78
2022/03/04 11:50:37;;;;;;;12.15;9.00;;;;;;;;;;12877000;23;20001;-78
2022/03/04 11:55:39;;;;;;;15.45;11.55;;;;;;;;;;12849318;23;20064;-78
2022/03/04 12:00:40;;;;;;;19.95;15.55;;;;;;;;;;12848613;23;20005;-78
2022/03/04 12:05:45;;;;;;;19.73;15.27;;;;;;;;;;12844449;23;20004;-79
2022/03/04 12:10:48;;;;;;;12.50;9.75;;;;;;;;;;12927674;23;20020;-80
2022/03/04 12:15:50;;;;;;;16.13;12.40;;;;;;;;;;12913813;23;20008;-80
2022/03/04 12:20:51;;;;;;;23.17;16.38;;;;;;;;;;12914472;23;20072;-81
2022/03/04 12:25:52;;;;;;;;;;;;;;;;;;12918105;23;20004;-80
2022/03/04 12:31:17;;;;;;;21.02;15.73;;;;;;;;;;12921647;23;19939;-80
2022/03/04 12:36:18;;;;;;;18.65;15.23;;;;;;;;;;12906997;23;20103;-79
2022/03/04 12:41:21;;;;;;;14.98;9.80;;;;;;;;;;12919588;23;20095;-80
2022/03/04 12:46:23;;;;;;;11.65;8.43;;;;;;;;;;12918865;23;20008;-80
2022/03/04 12:51:31;;;;;;;17.88;13.43;;;;;;;;;;12917687;23;20009;-81
2022/03/04 12:56:32;;;;;;;15.77;11.07;;;;;;;;;;12916721;23;19997;-81
2022/03/04 13:01:33;;;;;;;14.68;10.02;;;;;;;;;;12945137;23;20364;-80
2022/03/04 13:06:34;;;;;;;;;;;;;;;;;;12945590;23;20062;-81
2022/03/04 13:11:37;;;;;;;18.85;14.65;;;;;;;;;;12917005;23;19903;-80
2022/03/04 13:16:43;;;;;;;15.07;11.82;;;;;;;;;;12943924;23;20007;-81
2022/03/04 13:21:57;;;;;;;15.85;11.63;;;;;;;;;;12944680;23;20004;-81
2022/03/04 13:27:06;;;;;;;15.02;11.63;;;;;;;;;;12943332;23;20165;-82
2022/03/04 13:32:13;;;;;;;13.98;11.40;;;;;;;;;;12915596;23;20008;-82
2022/03/04 13:37:18;;;;;;;14.48;11.07;;;;;;;;;;12915509;23;20004;-82
2022/03/04 13:42:21;;;;;;;22.83;16.52;;;;;;;;;;12944245;23;20007;-82
2022/03/04 13:47:41;;;;;;;18.90;11.07;;;;;;;;;;12910837;23;20008;-81
2022/03/04 13:53:01;;;;;;;17.53;12.20;;;;;;;;;;12904463;23;20340;-81
2022/03/04 13:58:08;;;;;;;13.00;9.88;;;;;;;;;;12914459;23;20036;-83
2022/03/04 14:03:11;;;;;;;15.25;9.95;;;;;;;;;;12914010;23;20015;-83
2022/03/04 14:08:13;;;;;;;17.17;10.57;;;;;;;;;;12911934;23;20019;-82
2022/03/04 14:13:16;;;;;;;17.75;13.40;;;;;;;;;;12921707;23;20103;-83
2022/03/04 14:18:18;;;;;;;13.75;9.90;;;;;;;;;;12911776;23;20008;-82
2022/03/04 14:23:19;;;;;;;16.35;10.55;;;;;;;;;;12912693;23;20083;-82
2022/03/04 14:28:20;;;;;;;;;;;;;;;;;;12913592;23;20007;-81
2022/03/04 14:33:25;;;;;;;16.27;11.20;;;;;;;;;;12912698;23;20256;-81
2022/03/04 14:38:27;;;;;;;15.05;10.75;;;;;;;;;;12863717;23;20038;-83
2022/03/04 14:43:27;;;;;;;12.65;9.48;;;;;;;;;;12912377;23;20011;-82
2022/03/04 14:48:29;;;;;;;14.60;10.70;;;;;;;;;;12913531;23;20060;-83
2022/03/04 14:53:30;;;;;;;;;;;;;;;;;;12914128;23;20011;-83
2022/03/04 14:58:31;;;;;;;12.52;8.90;;;;;;;;;;12915465;23;19919;-84
2022/03/04 15:03:32;;;;;;;;;;;;;;;;;;12942966;23;20004;-82
2022/03/04 15:08:33;;;;;;;10.98;7.97;;;;;;;;;;12945645;23;19911;-81
2022/03/04 15:13:34;;;;;;;;;;;;;;;;;;12921814;23;20072;-82
2022/03/04 15:18:35;;;;;;;11.45;7.85;;;;;;;;;;12922642;23;19921;-82
2022/03/04 15:23:37;;;;;;;;;;;;;;;;;;12919862;23;20000;-83
2022/03/04 15:28:38;;;;;;;8.52;6.03;;;;;;;;;;12923563;23;20316;-80
2022/03/04 15:33:39;;;;;;;;;;;;;;;;;;12909851;23;20012;-81
2022/03/04 15:38:40;;;;;;;14.25;9.27;;;;;;;;;;12907198;23;19907;-80
2022/03/04 15:43:41;;;;;;;12.05;8.40;;;;;;;;;;12904884;23;20535;-80
2022/03/04 15:48:42;;;;;;;;;;;;;;;;;;12905950;23;20388;-80
2022/03/04 15:53:44;;;;;;;11.52;7.80;;;;;;;;;;12905290;23;19986;-79
2022/03/04 15:58:45;;;;;;;11.40;7.90;;;;;;;;;;12905636;23;20000;-80
2022/03/04 16:03:46;;;;;;;;;;;;;;;;;;12907713;23;20031;-80
2022/03/04 16:08:47;;;;;;;8.13;5.45;;;;;;;;;;12905896;23;19961;-80
2022/03/04 16:13:49;;;;;;;11.40;5.60;;;;;;;;;;12907820;23;20090;-80
2022/03/04 16:18:50;;;;;;;6.57;4.75;;;;;;;;;;12905584;23;20020;-80
2022/03/04 16:23:50;;;;;;;;;;;;;;;;;;12906263;23;20340;-80
2022/03/04 16:28:53;;;;;;;7.80;4.40;;;;;;;;;;12905842;23;19978;-81
2022/03/04 16:33:54;;;;;;;6.60;4.72;;;;;;;;;;12906069;23;20011;-80
2022/03/04 16:38:55;;;;;;;;;;;;;;;;;;12907887;23;20007;-81
2022/03/04 16:43:56;;;;;;;7.20;4.45;;;;;;;;;;12907943;23;19961;-81
2022/03/04 16:48:57;;;;;;;;;;;;;;;;;;12908916;23;20004;-81
2022/03/04 16:53:58;;;;;;;146.48;73.25;;;;;;;;;;12907108;23;19979;-81
2022/03/04 16:58:59;;;;;;;;;;;;;;;;;;12907074;23;20011;-80
2022/03/04 17:04:01;;;;;;;8.05;4.57;;;;;;;;;;12934102;23;19983;-80
2022/03/04 17:09:02;;;;;;;7.32;4.72;;;;;;;;;;12905255;23;20104;-81
2022/03/04 17:14:03;;;;;;;5.88;3.15;;;;;;;;;;12906273;23;20023;-81
2022/03/04 17:19:04;;;;;;;;;;;;;;;;;;12912827;23;20316;-84
2022/03/04 17:24:05;;;;;;;10.23;5.65;;;;;;;;;;12922929;23;20228;-81
2022/03/04 17:29:06;;;;;;;;;;;;;;;;;;12917580;23;20091;-82
2022/03/04 17:34:07;;;;;;;6.40;4.38;;;;;;;;;;12941032;23;19942;-82
2022/03/04 17:39:08;;;;;;;9.00;5.55;;;;;;;;;;12913661;23;20078;-82
2022/03/04 17:44:09;;;;;;;7.57;4.57;;;;;;;;;;12916535;23;20042;-81
2022/03/04 17:49:13;;;;;;;6.25;4.20;;;;;;;;;;12941739;23;20080;-80
2022/03/04 17:54:14;;;;;;;5.90;3.90;;;;;;;;;;12915253;23;20010;-81
2022/03/04 17:59:15;;;;;;;;;;;;;;;;;;12917947;23;19996;-81
2022/03/04 18:04:18;;;;;;;8.10;5.45;;;;;;;;;;12963788;23;19922;-79
2022/03/04 18:09:19;;;;;;;;;;;;;;;;;;12910905;23;20391;-82
2022/03/04 18:14:20;;;;;;;5.90;4.30;;;;;;;;;;12877420;23;19943;-82
2022/03/04 18:19:21;;;;;;;8.88;6.00;;;;;;;;;;12848048;23;20013;-82
2022/03/04 18:24:22;;;;;;;8.63;5.10;;;;;;;;;;12814074;23;20005;-82
2022/03/04 18:29:23;;;;;;;7.28;4.07;;;;;;;;;;12815481;23;20080;-83
2022/03/04 18:34:25;;;;;;;6.10;4.63;;;;;;;;;;12812874;23;20005;-82
2022/03/04 18:45:39;;;;;;;9.68;6.47;;;;;;;;;;12837915;23;20009;-82
2022/03/04 18:50:15;;;;;;;9.13;5.72;;;;;;;;;;12837743;23;20096;-82
2022/03/04 18:55:19;;;;;;;10.90;6.90;;;;;;;;;;12841921;23;20009;-83
2022/03/04 19:00:20;;;;;;;6.28;4.07;;;;;;;;;;12814874;23;20057;-83
2022/03/04 19:05:22;;;;;;;5.82;3.78;;;;;;;;;;12786410;23;20095;-83
